Time;durP1;ratioP1;P1;durP2;ratioP2;P2;SDS_P1;SDS_P2;PMS_P1;PMS_P2;Temp;Humidity;BMP_temperature;BMP_pressure;BME280_temperature;BME280_humidity;BME280_pressure;Samples;Min_cycle;Max_cycle;Signal;HPM_P1;HPM_P2
2021/01/26 00:00:54;;;;;;;94.25;48.35;;;2.80;99.50;;;;;;5094676;28;20058;-66
2021/01/26 00:03:20;;;;;;;69.60;42.60;;;2.90;99.20;;;;;;5095904;28;20024;-66
2021/01/26 00:05:46;;;;;;;60.88;33.33;;;2.90;99.00;;;;;;5096544;28;20036;-66
2021/01/26 00:08:13;;;;;;;127.10;75.15;;;2.90;98.80;;;;;;5096124;28;20496;-66
2021/01/26 00:10:39;;;;;;;60.97;37.70;;;2.80;99.30;;;;;;5096133;28;20107;-67
2021/01/26 00:13:06;;;;;;;92.88;55.30;;;2.60;99.60;;;;;;5095908;28;20039;-66
2021/01/26 00:15:32;;;;;;;113.07;65.35;;;2.70;99.80;;;;;;5096242;28;20071;-67
2021/01/26 00:17:58;;;;;;;121.40;66.95;;;2.70;99.50;;;;;;5095846;28;20111;-67
2021/01/26 00:20:25;;;;;;;106.10;62.20;;;2.90;99.30;;;;;;5096143;28;20027;-66
2021/01/26 00:22:51;;;;;;;138.13;77.97;;;2.90;99.10;;;;;;5096076;28;20081;-66
2021/01/26 00:25:24;;;;;;;139.75;76.18;;;2.90;99.30;;;;;;5128918;27;20032;-66
2021/01/26 00:27:51;;;;;;;189.65;116.30;;;2.90;99.20;;;;;;5095776;28;20077;-67
2021/01/26 00:30:21;;;;;;;173.25;113.75;;;2.90;99.30;;;;;;5095578;28;20094;-67
2021/01/26 00:32:47;;;;;;;124.88;75.05;;;2.90;98.90;;;;;;5095843;28;20035;-66
2021/01/26 00:35:18;;;;;;;80.97;52.03;;;2.90;99.10;;;;;;5096005;28;20028;-66
2021/01/26 00:37:44;;;;;;;59.92;38.33;;;2.80;99.50;;;;;;5095807;28;20035;-66
2021/01/26 00:40:11;;;;;;;48.83;32.08;;;2.80;99.50;;;;;;5095931;28;20020;-66
2021/01/26 00:42:36;;;;;;;109.25;73.05;;;2.80;99.70;;;;;;5095897;28;20032;-66
2021/01/26 00:45:04;;;;;;;59.45;33.63;;;2.70;99.70;;;;;;5128163;27;20381;-67
2021/01/26 00:47:30;;;;;;;55.67;32.42;;;2.70;99.70;;;;;;5094352;28;20367;-66
2021/01/26 00:49:56;;;;;;;57.88;34.58;;;2.60;99.90;;;;;;5095272;28;20039;-66
2021/01/26 00:52:21;;;;;;;51.72;33.10;;;2.70;99.90;;;;;;5094857;28;20043;-66
2021/01/26 00:54:47;;;;;;;50.60;31.05;;;2.50;99.90;;;;;;5095514;28;20043;-66
2021/01/26 00:57:19;;;;;;;68.43;41.42;;;2.50;99.90;;;;;;5095382;28;20031;-67
2021/01/26 00:59:46;;;;;;;48.67;29.50;;;2.40;99.90;;;;;;5095343;28;20078;-66
2021/01/26 01:02:12;;;;;;;51.80;31.67;;;2.50;99.90;;;;;;5095614;28;20034;-66
2021/01/26 01:04:38;;;;;;;82.32;46.65;;;2.40;99.90;;;;;;5095281;28;20081;-66
2021/01/26 01:07:04;;;;;;;53.10;32.15;;;2.40;99.90;;;;;;5094955;28;20028;-66
2021/01/26 01:09:29;;;;;;;58.22;36.78;;;2.50;99.90;;;;;;5095482;28;20052;-66
2021/01/26 01:11:55;;;;;;;61.15;38.22;;;2.40;99.90;;;;;;5092950;28;20038;-67
2021/01/26 01:14:21;;;;;;;96.63;61.92;;;2.40;99.90;;;;;;5127814;27;20431;-67
2021/01/26 01:16:46;;;;;;;286.80;147.15;;;2.30;99.90;;;;;;5094732;28;20062;-67
2021/01/26 01:19:12;;;;;;;68.05;40.00;;;2.40;99.90;;;;;;5094693;28;20035;-66
2021/01/26 01:21:38;;;;;;;63.40;36.88;;;2.30;99.90;;;;;;5094962;28;20085;-66
2021/01/26 01:24:04;;;;;;;49.85;27.42;;;2.30;99.90;;;;;;5094590;28;20097;-67
2021/01/26 01:26:29;;;;;;;50.50;30.33;;;2.40;99.90;;;;;;5094843;28;20035;-66
2021/01/26 01:28:55;;;;;;;57.05;32.35;;;2.30;99.90;;;;;;5094079;28;20024;-67
2021/01/26 01:31:21;;;;;;;57.50;32.67;;;2.30;99.90;;;;;;5094432;28;20024;-66
2021/01/26 01:33:46;;;;;;;57.90;33.67;;;2.20;99.90;;;;;;5093005;28;20036;-67
2021/01/26 01:36:12;;;;;;;61.90;33.15;;;2.20;99.90;;;;;;5094682;28;20032;-67
2021/01/26 01:38:38;;;;;;;71.05;37.92;;;2.20;99.90;;;;;;5094945;28;20024;-67
2021/01/26 01:41:04;;;;;;;59.90;32.40;;;2.40;99.90;;;;;;5094334;28;20507;-67
2021/01/26 01:43:29;;;;;;;92.68;49.55;;;2.30;99.90;;;;;;5094600;28;20028;-67
2021/01/26 01:45:55;;;;;;;124.35;77.63;;;2.50;99.90;;;;;;5094285;28;20077;-67
2021/01/26 01:48:28;;;;;;;57.83;33.90;;;2.50;99.90;;;;;;5093170;28;20078;-66
2021/01/26 01:50:59;;;;;;;50.85;29.77;;;2.40;99.90;;;;;;5094429;28;20081;-66
2021/01/26 01:53:32;;;;;;;52.38;28.45;;;2.40;99.90;;;;;;5094324;28;20031;-67
2021/01/26 01:56:05;;;;;;;51.13;29.10;;;2.40;99.90;;;;;;5093829;28;20024;-66
2021/01/26 01:58:36;;;;;;;71.05;40.05;;;2.50;99.90;;;;;;5094367;28;20073;-66
2021/01/26 02:01:12;;;;;;;54.22;29.25;;;2.40;99.90;;;;;;5092902;28;20052;-66
2021/01/26 02:03:43;;;;;;;59.03;31.15;;;2.30;99.90;;;;;;5094321;28;20027;-66
2021/01/26 02:06:10;;;;;;;48.10;26.70;;;2.30;99.90;;;;;;5094026;28;20495;-66
2021/01/26 02:08:56;;;;;;;100.68;61.13;;;2.40;99.90;;;;;;5094037;28;20107;-66
2021/01/26 02:11:23;;;;;;;54.58;30.25;;;2.40;99.90;;;;;;5094199;28;20032;-67
2021/01/26 02:13:50;;;;;;;61.92;35.05;;;2.30;99.90;;;;;;5093759;28;20032;-67
2021/01/26 02:16:49;;;;;;;74.93;41.25;;;2.30;99.90;;;;;;5093524;28;20103;-66
2021/01/26 02:19:53;;;;;;;64.63;35.85;;;2.20;99.90;;;;;;5068473;28;20051;-66
2021/01/26 02:22:30;;;;;;;53.83;32.53;;;2.40;99.90;;;;;;5093630;28;20020;-66
2021/01/26 02:25:35;;;;;;;68.85;40.45;;;2.30;99.90;;;;;;5093436;28;20020;-66
2021/01/26 02:28:33;;;;;;;45.33;28.58;;;2.20;99.90;;;;;;5082623;28;20047;-66
2021/01/26 02:31:23;;;;;;;51.60;29.63;;;2.40;99.90;;;;;;5092181;28;20038;-66
2021/01/26 02:33:52;;;;;;;56.33;32.40;;;2.20;99.90;;;;;;5093758;28;20028;-66
2021/01/26 02:36:48;;;;;;;62.70;35.13;;;2.30;99.90;;;;;;5093499;28;20033;-67
2021/01/26 02:39:34;;;;;;;72.32;45.10;;;2.30;99.90;;;;;;5094410;28;20030;-67
2021/01/26 02:42:25;;;;;;;73.55;45.42;;;2.40;99.90;;;;;;5093751;28;20043;-67
2021/01/26 02:45:12;;;;;;;54.03;33.17;;;2.40;99.90;;;;;;5093230;28;20016;-66
2021/01/26 02:47:57;;;;;;;50.13;29.52;;;2.40;99.90;;;;;;5094009;28;20028;-67
2021/01/26 02:50:35;;;;;;;48.08;28.33;;;2.30;99.90;;;;;;5093159;28;20028;-66
2021/01/26 02:53:36;;;;;;;39.85;23.75;;;2.40;99.90;;;;;;5092922;28;20122;-66
2021/01/26 02:56:36;;;;;;;47.65;27.40;;;2.50;99.90;;;;;;5093698;28;20065;-66
2021/01/26 02:59:04;;;;;;;64.65;37.20;;;2.40;99.90;;;;;;5087937;28;20081;-67
2021/01/26 03:01:39;;;;;;;63.28;36.85;;;2.40;99.90;;;;;;5092303;28;20474;-66
2021/01/26 03:04:14;;;;;;;57.25;35.85;;;2.40;99.90;;;;;;5093574;28;20024;-67
2021/01/26 03:06:45;;;;;;;62.22;35.97;;;2.30;99.90;;;;;;5093603;28;20476;-67
2021/01/26 03:09:25;;;;;;;50.50;29.90;;;2.40;99.90;;;;;;5092228;28;20166;-66
2021/01/26 03:12:15;;;;;;;44.15;27.17;;;2.50;99.90;;;;;;5093128;28;20386;-66
2021/01/26 03:14:51;;;;;;;52.45;30.35;;;2.40;99.90;;;;;;5093115;28;20466;-67
2021/01/26 03:17:44;;;;;;;59.00;35.08;;;2.50;99.90;;;;;;5092665;28;20036;-66
2021/01/26 03:20:20;;;;;;;47.30;28.52;;;2.50;99.90;;;;;;5091891;28;20028;-66
2021/01/26 03:22:51;;;;;;;46.03;29.33;;;2.50;99.90;;;;;;5093743;28;20035;-66
2021/01/26 03:25:20;;;;;;;46.22;27.50;;;2.40;99.90;;;;;;5093132;28;20043;-67
2021/01/26 03:27:48;;;;;;;58.67;34.75;;;2.50;99.90;;;;;;5092086;28;20473;-66
2021/01/26 03:30:24;;;;;;;45.78;28.13;;;2.40;99.90;;;;;;5093308;28;20073;-67
2021/01/26 03:32:56;;;;;;;41.08;25.67;;;2.40;99.90;;;;;;5093046;28;20419;-67
2021/01/26 03:35:22;;;;;;;56.15;34.75;;;2.40;99.90;;;;;;5095055;28;20035;-67
2021/01/26 03:37:55;;;;;;;42.88;26.73;;;2.40;99.90;;;;;;5096313;28;20020;-67
2021/01/26 03:40:20;;;;;;;51.08;31.40;;;2.50;99.90;;;;;;5095369;28;20024;-67
2021/01/26 03:42:46;;;;;;;48.42;30.45;;;2.40;99.90;;;;;;5095550;28;20525;-66
2021/01/26 03:45:13;;;;;;;54.90;32.35;;;2.40;99.90;;;;;;5097158;28;20033;-67
2021/01/26 03:47:57;;;;;;;40.58;25.50;;;2.50;99.90;;;;;;5096840;28;20103;-67
2021/01/26 03:50:52;;;;;;;40.58;25.30;;;2.60;99.90;;;;;;5096551;28;20043;-67
2021/01/26 03:53:26;;;;;;;41.03;25.87;;;2.50;99.90;;;;;;5072475;28;20043;-67
2021/01/26 03:56:12;;;;;;;42.92;25.50;;;2.50;99.90;;;;;;5096603;28;20683;-66
2021/01/26 03:59:03;;;;;;;42.90;26.02;;;2.40;99.90;;;;;;5096374;28;20461;-66
2021/01/26 04:01:45;;;;;;;58.40;34.13;;;2.50;99.90;;;;;;5096465;28;20040;-66
2021/01/26 04:04:14;;;;;;;56.63;32.63;;;2.50;99.90;;;;;;5096226;28;20408;-67
2021/01/26 04:06:53;;;;;;;61.85;36.75;;;2.50;99.90;;;;;;5096728;28;20103;-67
2021/01/26 04:09:23;;;;;;;48.72;29.30;;;2.50;99.90;;;;;;5096741;28;20373;-67
2021/01/26 04:12:02;;;;;;;45.00;28.67;;;2.50;99.90;;;;;;5096108;28;20487;-67
2021/01/26 04:14:31;;;;;;;50.75;27.85;;;2.50;99.90;;;;;;5096018;28;20032;-67
2021/01/26 04:17:06;;;;;;;48.85;27.98;;;2.40;99.90;;;;;;5094952;28;20038;-66
2021/01/26 04:19:49;;;;;;;56.47;31.20;;;2.40;99.90;;;;;;5096213;28;20099;-67
2021/01/26 04:22:16;;;;;;;46.95;26.10;;;2.40;99.90;;;;;;5094879;28;20508;-66
2021/01/26 04:24:42;;;;;;;52.85;29.20;;;2.50;99.90;;;;;;5096430;28;20058;-66
2021/01/26 04:27:15;;;;;;;53.20;28.67;;;2.60;99.90;;;;;;5096122;28;20063;-66
2021/01/26 04:29:41;;;;;;;71.80;40.90;;;2.60;99.90;;;;;;5095748;28;20454;-67
2021/01/26 04:32:07;;;;;;;116.75;63.30;;;2.40;99.90;;;;;;5095982;28;20085;-67
2021/01/26 04:34:33;;;;;;;93.10;57.95;;;2.50;99.90;;;;;;5095565;28;20028;-67
2021/01/26 04:36:59;;;;;;;61.30;35.70;;;2.40;99.90;;;;;;5095536;28;20111;-67
2021/01/26 04:39:25;;;;;;;66.22;37.08;;;2.50;99.90;;;;;;5094478;28;20142;-66
2021/01/26 04:42:15;;;;;;;92.70;51.05;;;2.50;99.90;;;;;;5095469;28;20020;-67
2021/01/26 04:45:10;;;;;;;76.03;46.05;;;2.60;99.90;;;;;;5094478;28;20035;-67
2021/01/26 04:47:53;;;;;;;72.55;42.08;;;2.40;99.90;;;;;;5068153;28;20085;-67
2021/01/26 04:50:41;;;;;;;75.00;37.92;;;2.40;99.90;;;;;;5094043;28;20032;-67
2021/01/26 04:53:34;;;;;;;64.10;33.95;;;2.30;99.90;;;;;;5095384;28;20130;-67
2021/01/26 04:56:20;;;;;;;88.22;46.67;;;2.40;99.90;;;;;;5095425;28;20465;-67
2021/01/26 04:58:52;;;;;;;81.82;42.85;;;2.30;99.90;;;;;;5094233;28;20036;-66
2021/01/26 05:01:27;;;;;;;71.18;41.15;;;2.30;99.90;;;;;;5095112;28;20071;-67
2021/01/26 05:04:04;;;;;;;59.20;33.13;;;2.30;99.90;;;;;;5095081;28;20028;-67
2021/01/26 05:06:51;;;;;;;56.97;33.08;;;2.30;99.90;;;;;;5095358;28;20413;-67
2021/01/26 05:09:32;;;;;;;50.05;28.45;;;2.30;99.90;;;;;;5094005;28;20118;-67
2021/01/26 05:12:00;;;;;;;46.33;26.77;;;2.30;99.90;;;;;;5095229;28;20028;-67
2021/01/26 05:14:32;;;;;;;128.45;74.15;;;2.40;99.90;;;;;;5095324;28;20147;-67
2021/01/26 05:17:18;;;;;;;87.10;46.75;;;2.30;99.90;;;;;;5094050;28;20036;-67
2021/01/26 05:19:53;;;;;;;120.35;62.08;;;2.20;99.90;;;;;;5093812;28;20157;-67
2021/01/26 05:22:39;;;;;;;92.05;46.38;;;2.10;99.90;;;;;;5095320;28;20039;-67
2021/01/26 05:25:09;;;;;;;75.85;41.75;;;2.10;99.90;;;;;;5094831;28;20020;-67
2021/01/26 05:27:35;;;;;;;75.85;39.47;;;2.20;99.90;;;;;;5093580;28;20035;-67
2021/01/26 05:30:04;;;;;;;131.40;68.80;;;2.20;99.90;;;;;;5095412;28;20432;-67
2021/01/26 05:32:30;;;;;;;115.63;54.72;;;2.00;99.90;;;;;;5093109;28;20027;-67
2021/01/26 05:34:56;;;;;;;99.93;47.00;;;2.10;99.90;;;;;;5094421;28;20477;-67
2021/01/26 05:37:23;;;;;;;139.45;69.00;;;2.00;99.90;;;;;;5094687;28;20024;-67
2021/01/26 05:40:04;;;;;;;114.18;62.55;;;2.10;99.90;;;;;;5094357;28;20031;-66
2021/01/26 05:42:32;;;;;;;76.93;43.67;;;2.10;99.90;;;;;;5093350;28;20024;-67
2021/01/26 05:45:10;;;;;;;61.67;37.83;;;2.00;99.90;;;;;;5092967;28;20024;-67
2021/01/26 05:47:39;;;;;;;61.53;37.47;;;2.00;99.90;;;;;;5093320;28;20132;-68
2021/01/26 05:50:23;;;;;;;67.65;41.25;;;2.00;99.90;;;;;;5094229;28;20441;-68
2021/01/26 05:52:49;;;;;;;53.67;33.03;;;2.10;99.90;;;;;;5094607;28;20130;-68
2021/01/26 05:55:24;;;;;;;47.53;28.83;;;2.10;99.90;;;;;;5094524;28;20110;-68
2021/01/26 05:57:50;;;;;;;45.25;29.92;;;2.10;99.90;;;;;;5093509;28;20028;-67
2021/01/26 06:00:24;;;;;;;50.15;29.70;;;2.20;99.90;;;;;;5094315;28;20055;-68
2021/01/26 06:03:20;;;;;;;50.05;30.77;;;2.20;99.90;;;;;;5094308;28;20059;-67
2021/01/26 06:06:01;;;;;;;62.67;38.97;;;2.20;99.90;;;;;;5076360;28;20166;-68
2021/01/26 06:08:27;;;;;;;57.30;32.60;;;2.10;99.90;;;;;;5092858;28;20032;-67
2021/01/26 06:10:53;;;;;;;64.68;37.28;;;2.10;99.90;;;;;;5094446;28;20051;-68
2021/01/26 06:13:30;;;;;;;95.53;50.42;;;2.10;99.90;;;;;;5092427;28;20039;-67
2021/01/26 06:16:20;;;;;;;104.10;48.45;;;2.00;99.90;;;;;;5094449;28;20111;-67
2021/01/26 06:18:58;;;;;;;109.70;61.67;;;2.00;99.90;;;;;;5092404;28;20031;-67
2021/01/26 06:21:25;;;;;;;117.18;62.40;;;2.00;99.90;;;;;;5091676;28;20024;-67
2021/01/26 06:23:51;;;;;;;102.50;55.60;;;2.00;99.90;;;;;;5093658;28;20039;-67
2021/01/26 06:26:17;;;;;;;83.68;43.28;;;1.90;99.90;;;;;;5126756;27;20032;-68
2021/01/26 06:28:52;;;;;;;78.53;42.33;;;2.00;99.90;;;;;;5126448;27;20028;-67
2021/01/26 06:31:17;;;;;;;;;;;2.00;99.90;;;;;;5094335;28;20032;-67
2021/01/26 06:34:10;;;;;;;73.68;37.35;;;2.10;99.90;;;;;;5092437;28;19962;-67
2021/01/26 06:36:51;;;;;;;69.95;34.35;;;2.10;99.90;;;;;;5094120;28;20032;-67
2021/01/26 06:40:30;;;;;;;158.05;75.25;;;2.10;99.90;;;;;;5093892;28;20028;-67
2021/01/26 06:43:08;;;;;;;63.72;34.25;;;2.10;99.90;;;;;;4972314;28;20493;-67
2021/01/26 06:45:47;;;;;;;76.00;38.85;;;2.20;99.90;;;;;;5024104;28;20041;-67
2021/01/26 06:48:37;;;;;;;47.72;28.92;;;2.20;99.90;;;;;;5082364;28;20039;-67
2021/01/26 06:51:43;;;;;;;41.45;25.90;;;2.20;99.90;;;;;;5093016;28;20467;-68
2021/01/26 06:54:37;;;;;;;65.78;35.47;;;2.10;99.90;;;;;;5047798;28;20139;-68
2021/01/26 06:57:26;;;;;;;66.18;31.42;;;2.30;99.90;;;;;;5092091;28;20021;-67
2021/01/26 07:00:19;;;;;;;63.20;33.20;;;2.30;99.90;;;;;;5082487;28;20132;-67
2021/01/26 07:03:00;;;;;;;50.67;29.60;;;2.40;99.90;;;;;;5093298;28;20055;-67
2021/01/26 07:05:36;;;;;;;49.63;29.70;;;2.30;99.90;;;;;;5093924;28;20032;-67
2021/01/26 07:08:30;;;;;;;66.68;38.08;;;2.30;99.70;;;;;;5093922;28;20024;-66
2021/01/26 07:11:23;;;;;;;59.65;36.63;;;2.40;99.90;;;;;;5095045;28;20058;-67
2021/01/26 07:14:27;;;;;;;55.28;34.17;;;2.30;99.80;;;;;;5097136;28;20032;-67
2021/01/26 07:17:06;;;;;;;42.30;26.45;;;2.40;99.30;;;;;;5097355;28;20043;-67
2021/01/26 07:20:16;;;;;;;48.65;31.85;;;2.40;99.10;;;;;;5097897;28;20020;-67
2021/01/26 07:23:00;;;;;;;51.72;31.48;;;2.50;99.20;;;;;;5089067;28;20089;-67
2021/01/26 07:26:01;;;;;;;47.22;29.77;;;2.50;99.00;;;;;;5096054;28;20031;-66
2021/01/26 07:28:32;;;;;;;54.75;34.10;;;2.50;99.00;;;;;;5063082;28;20122;-67
2021/01/26 07:31:26;;;;;;;59.33;38.40;;;2.60;99.10;;;;;;5095808;28;20422;-67
2021/01/26 07:34:15;;;;;;;50.92;31.38;;;2.50;98.50;;;;;;5090544;28;20113;-66
2021/01/26 07:36:50;;;;;;;45.30;27.88;;;2.60;98.80;;;;;;5096870;28;20103;-67
2021/01/26 07:39:32;;;;;;;53.22;34.70;;;2.50;98.60;;;;;;5097383;28;20031;-68
2021/01/26 07:42:36;;;;;;;51.55;31.85;;;2.70;99.00;;;;;;5096999;28;20051;-67
2021/01/26 07:45:14;;;;;;;48.92;30.85;;;2.60;98.30;;;;;;5062335;28;20569;-67
2021/01/26 07:47:49;;;;;;;38.33;24.85;;;2.70;98.50;;;;;;5095577;28;20039;-68
2021/01/26 07:50:39;;;;;;;38.35;24.98;;;2.70;98.00;;;;;;5096611;28;20477;-67
2021/01/26 07:53:16;;;;;;;46.33;28.15;;;2.70;98.20;;;;;;5096422;28;20035;-66
2021/01/26 07:56:13;;;;;;;41.78;26.40;;;2.70;98.10;;;;;;5096802;28;20036;-66
2021/01/26 07:58:46;;;;;;;43.13;28.50;;;2.70;98.10;;;;;;5070768;28;20032;-67
2021/01/26 08:01:13;;;;;;;88.82;52.10;;;2.80;98.30;;;;;;5095347;28;20055;-66
2021/01/26 08:03:39;;;;;;;162.35;92.68;;;2.80;98.20;;;;;;5096519;28;20089;-67
2021/01/26 08:06:17;;;;;;;197.43;140.18;;;3.00;98.10;;;;;;5096182;28;20034;-65
2021/01/26 08:08:44;;;;;;;81.65;52.08;;;3.00;97.70;;;;;;5095947;28;20028;-67
2021/01/26 08:11:13;;;;;;;83.25;44.33;;;3.00;97.50;;;;;;5095137;28;20020;-66
2021/01/26 08:14:04;;;;;;;112.50;61.60;;;3.10;97.90;;;;;;5096311;28;20422;-66
2021/01/26 08:16:34;;;;;;;432.77;250.80;;;3.10;98.00;;;;;;5094623;28;20462;-66
2021/01/26 08:19:02;;;;;;;151.10;118.90;;;3.00;97.40;;;;;;5096539;28;20073;-66
2021/01/26 08:21:31;;;;;;;56.58;39.30;;;3.00;97.00;;;;;;5096359;28;20020;-67
2021/01/26 08:24:27;;;;;;;60.30;31.70;;;2.90;97.30;;;;;;5094581;28;20481;-66
2021/01/26 08:26:55;;;;;;;56.25;34.90;;;2.90;97.30;;;;;;5096410;28;20082;-66
2021/01/26 08:29:47;;;;;;;67.18;34.58;;;2.90;97.70;;;;;;5095712;28;20020;-68
2021/01/26 08:32:22;;;;;;;38.78;24.23;;;2.90;96.90;;;;;;5093336;28;20097;-67
2021/01/26 08:35:04;;;;;;;48.08;26.08;;;2.90;97.20;;;;;;5095832;28;20028;-68
2021/01/26 08:37:41;;;;;;;57.95;29.85;;;2.90;97.50;;;;;;5095489;28;20109;-67
2021/01/26 08:40:09;;;;;;;85.90;41.58;;;3.00;97.60;;;;;;5095765;28;20103;-67
2021/01/26 08:42:41;;;;;;;70.68;34.58;;;3.00;97.70;;;;;;5094495;28;20076;-65
2021/01/26 08:45:39;;;;;;;80.97;42.55;;;3.10;97.10;;;;;;5094136;28;20469;-67
2021/01/26 08:48:19;;;;;;;73.75;41.50;;;3.20;96.90;;;;;;5094517;28;20483;-68
2021/01/26 08:50:51;;;;;;;60.45;34.95;;;3.10;97.00;;;;;;5095118;28;20027;-67
2021/01/26 08:53:29;;;;;;;99.30;46.78;;;3.20;97.40;;;;;;5094152;28;20054;-69
2021/01/26 08:56:03;;;;;;;101.78;46.88;;;3.10;96.70;;;;;;5095528;28;20031;-68
2021/01/26 08:58:49;;;;;;;347.42;160.57;;;3.20;97.10;;;;;;5095494;28;20027;-70
2021/01/26 09:01:24;;;;;;;719.47;382.48;;;3.10;96.80;;;;;;5094191;28;20044;-69
2021/01/26 09:03:55;;;;;;;221.35;101.90;;;3.20;97.00;;;;;;5093829;28;20040;-69
2021/01/26 09:06:26;;;;;;;434.27;229.65;;;3.30;96.90;;;;;;5092608;28;20024;-68
2021/01/26 09:08:55;;;;;;;214.65;134.07;;;3.30;96.60;;;;;;5093553;28;20023;-69
2021/01/26 09:11:41;;;;;;;255.98;153.25;;;3.30;96.20;;;;;;5093500;28;20024;-68
2021/01/26 09:14:44;;;;;;;61.90;34.63;;;3.40;96.70;;;;;;5090355;28;20122;-68
2021/01/26 09:17:13;;;;;;;52.97;27.80;;;3.40;96.50;;;;;;5093229;28;20035;-67
2021/01/26 09:19:42;;;;;;;37.05;22.42;;;3.40;96.30;;;;;;5092050;28;20051;-68
2021/01/26 09:22:19;;;;;;;34.92;20.20;;;3.30;94.50;;;;;;5092280;28;20031;-68
2021/01/26 09:24:46;;;;;;;42.55;24.42;;;3.40;95.50;;;;;;5090920;28;20032;-68
2021/01/26 09:27:34;;;;;;;42.30;25.17;;;3.50;95.50;;;;;;5092918;28;20025;-68
2021/01/26 09:30:19;;;;;;;40.80;22.75;;;3.50;95.70;;;;;;5091231;28;20376;-68
2021/01/26 09:32:59;;;;;;;39.67;22.60;;;3.60;95.10;;;;;;5089888;28;20053;-67
2021/01/26 09:36:04;;;;;;;42.53;23.60;;;3.70;95.40;;;;;;5092747;28;20028;-67
2021/01/26 09:38:41;;;;;;;36.58;21.75;;;3.70;95.30;;;;;;5069284;28;20066;-68
2021/01/26 09:41:26;;;;;;;46.58;23.52;;;3.80;94.90;;;;;;5091647;28;20031;-68
2021/01/26 09:43:56;;;;;;;;;;;3.70;94.30;;;;;;5090034;28;20115;-67
2021/01/26 09:46:32;;;;;;;53.35;25.27;;;3.70;93.90;;;;;;5092581;28;19904;-69
2021/01/26 09:49:14;;;;;;;68.43;29.35;;;3.80;94.30;;;;;;5090013;28;20362;-67
2021/01/26 09:52:11;;;;;;;71.53;29.33;;;3.80;94.40;;;;;;5090418;28;20027;-69
2021/01/26 09:54:41;;;;;;;78.22;29.40;;;4.00;94.40;;;;;;5090885;28;20409;-69
2021/01/26 09:57:13;;;;;;;41.13;20.45;;;4.00;94.00;;;;;;5093068;28;20110;-68
2021/01/26 09:59:40;;;;;;;43.17;20.17;;;4.00;93.30;;;;;;5091907;28;20508;-69
2021/01/26 10:02:11;;;;;;;50.75;24.67;;;4.00;93.30;;;;;;5091253;28;20139;-68
2021/01/26 10:04:39;;;;;;;84.40;33.10;;;4.00;93.40;;;;;;5093141;28;20035;-68
2021/01/26 10:07:08;;;;;;;44.10;21.75;;;4.20;93.70;;;;;;5092452;28;20108;-68
2021/01/26 10:09:35;;;;;;;61.58;29.00;;;;;;;;;;5092288;28;20469;-69
2021/01/26 10:12:21;;;;;;;50.38;24.85;;;4.90;93.00;;;;;;5092757;28;20031;-67
2021/01/26 10:15:09;;;;;;;131.43;54.22;;;5.00;91.50;;;;;;5089969;28;20397;-69
2021/01/26 10:18:13;;;;;;;109.35;53.85;;;5.10;90.20;;;;;;5091340;28;20056;-70
2021/01/26 10:20:45;;;;;;;61.30;30.10;;;5.40;91.70;;;;;;5081556;28;20059;-70
2021/01/26 10:23:25;;;;;;;84.72;36.60;;;5.50;89.90;;;;;;5091633;28;20093;-69
2021/01/26 10:25:53;;;;;;;79.55;34.47;;;5.70;90.80;;;;;;5092627;28;20027;-70
2021/01/26 10:28:28;;;;;;;68.18;31.60;;;6.10;90.60;;;;;;5093875;28;20020;-70
2021/01/26 10:30:55;;;;;;;38.13;19.52;;;5.90;85.50;;;;;;5093932;28;20031;-69
2021/01/26 10:33:31;;;;;;;68.43;29.95;;;6.20;86.00;;;;;;5093845;28;20466;-69
2021/01/26 10:36:36;;;;;;;44.17;22.70;;;6.40;86.70;;;;;;5092323;28;20465;-68
2021/01/26 10:39:26;;;;;;;28.35;16.52;;;6.50;85.90;;;;;;5092596;28;20094;-67
2021/01/26 10:42:09;;;;;;;44.83;24.45;;;6.60;84.70;;;;;;5093844;28;20031;-69
2021/01/26 10:44:44;;;;;;;31.55;20.08;;;6.50;82.10;;;;;;5094430;28;20039;-69
2021/01/26 10:47:31;;;;;;;23.42;16.17;;;5.90;83.20;;;;;;5096780;28;20166;-69
2021/01/26 10:50:04;;;;;;;40.53;26.13;;;5.80;85.10;;;;;;5097729;28;20032;-69
2021/01/26 10:52:47;;;;;;;33.30;22.25;;;5.90;85.00;;;;;;5096905;28;20458;-69
2021/01/26 10:55:19;;;;;;;24.85;16.27;;;6.00;88.20;;;;;;5097686;28;20043;-68
2021/01/26 10:57:46;;;;;;;43.10;24.58;;;6.20;84.60;;;;;;5096273;28;20470;-68
2021/01/26 11:00:23;;;;;;;47.03;29.33;;;6.60;83.30;;;;;;5094784;28;20397;-69
2021/01/26 11:02:50;;;;;;;33.45;22.08;;;6.80;82.30;;;;;;5095514;28;20024;-70
2021/01/26 11:05:16;;;;;;;23.73;14.63;;;6.90;80.80;;;;;;5097191;28;20031;-67
2021/01/26 11:07:42;;;;;;;28.65;19.40;;;6.60;80.50;;;;;;5097887;28;20481;-69
2021/01/26 11:10:09;;;;;;;26.85;17.30;;;6.20;80.60;;;;;;5097304;28;20035;-69
2021/01/26 11:12:36;;;;;;;28.35;18.35;;;5.90;83.40;;;;;;5095903;28;20111;-68
2021/01/26 11:15:04;;;;;;;32.55;21.73;;;5.70;84.40;;;;;;5097146;28;20020;-68
2021/01/26 11:17:29;;;;;;;26.35;17.02;;;5.40;84.20;;;;;;5097096;28;20381;-67
2021/01/26 11:19:55;;;;;;;28.35;17.90;;;5.30;86.80;;;;;;5096103;28;20024;-68
2021/01/26 11:22:21;;;;;;;36.55;21.40;;;5.20;87.80;;;;;;5097057;28;20020;-68
2021/01/26 11:24:46;;;;;;;34.70;19.73;;;5.00;88.10;;;;;;5097207;28;20115;-70
2021/01/26 11:27:12;;;;;;;37.60;21.15;;;4.90;90.50;;;;;;5095929;28;20077;-70
2021/01/26 11:29:38;;;;;;;27.17;15.93;;;4.80;88.40;;;;;;5096592;28;20031;-70
2021/01/26 11:32:04;;;;;;;22.20;14.70;;;4.70;87.80;;;;;;5095159;28;20082;-70
2021/01/26 11:34:31;;;;;;;20.92;14.18;;;4.60;85.70;;;;;;5094301;28;20036;-69
2021/01/26 11:36:57;;;;;;;39.80;21.30;;;4.60;88.50;;;;;;5094840;28;20106;-68
2021/01/26 11:39:23;;;;;;;27.05;16.90;;;4.60;88.60;;;;;;5096600;28;20522;-69
2021/01/26 11:41:49;;;;;;;25.65;14.70;;;4.50;87.50;;;;;;5096649;28;20028;-69
2021/01/26 11:44:14;;;;;;;24.83;15.90;;;4.50;88.40;;;;;;5095596;28;20485;-69
2021/01/26 11:46:40;;;;;;;24.88;16.35;;;4.50;89.30;;;;;;5095200;28;20032;-68
2021/01/26 11:49:06;;;;;;;30.98;19.23;;;4.50;89.10;;;;;;5096525;28;20043;-69
2021/01/26 11:51:32;;;;;;;25.02;17.40;;;4.50;90.20;;;;;;5096366;28;20106;-67
2021/01/26 11:53:58;;;;;;;30.15;20.30;;;4.50;90.70;;;;;;5095025;28;20112;-69
2021/01/26 11:56:25;;;;;;;31.27;19.30;;;4.40;90.20;;;;;;5094948;28;20174;-70
2021/01/26 11:58:51;;;;;;;31.50;20.08;;;4.50;91.00;;;;;;5096350;28;20039;-69
2021/01/26 12:01:17;;;;;;;28.35;18.05;;;4.50;91.00;;;;;;5094436;28;20047;-68
2021/01/26 12:03:44;;;;;;;23.77;14.77;;;4.50;91.10;;;;;;5096533;28;20036;-69
2021/01/26 12:06:11;;;;;;;29.80;18.17;;;4.40;88.20;;;;;;5095257;28;20055;-68
2021/01/26 12:08:38;;;;;;;25.48;16.52;;;4.40;90.20;;;;;;5095865;28;20028;-68
2021/01/26 12:11:05;;;;;;;37.15;22.48;;;4.30;89.90;;;;;;5096760;28;20024;-68
2021/01/26 12:13:31;;;;;;;51.33;31.42;;;4.30;90.90;;;;;;5095900;28;20028;-70
2021/01/26 12:15:57;;;;;;;31.98;22.20;;;4.30;90.30;;;;;;5095231;28;20036;-69
2021/01/26 12:18:23;;;;;;;32.13;21.90;;;4.30;90.70;;;;;;5095003;28;20024;-68
2021/01/26 12:20:48;;;;;;;33.30;20.02;;;4.30;90.60;;;;;;5095304;28;20469;-68
2021/01/26 12:23:14;;;;;;;37.05;22.88;;;4.30;90.70;;;;;;5095882;28;20032;-70
2021/01/26 12:25:40;;;;;;;29.35;16.48;;;4.20;89.60;;;;;;5094848;28;20035;-70
2021/01/26 12:28:07;;;;;;;25.13;16.40;;;4.20;90.80;;;;;;5094444;28;20024;-70
2021/01/26 12:30:34;;;;;;;22.00;14.48;;;4.00;90.50;;;;;;5096040;28;20458;-68
2021/01/26 12:33:00;;;;;;;33.38;19.40;;;3.90;91.00;;;;;;5095892;28;20043;-68
2021/01/26 12:35:35;;;;;;;21.65;13.32;;;3.80;90.60;;;;;;5094579;28;20024;-69
2021/01/26 12:38:01;;;;;;;;;;;3.80;90.10;;;;;;5096021;28;20020;-69
2021/01/26 12:40:27;;;;;;;34.20;18.45;;;3.70;90.80;;;;;;5094715;28;20384;-69
2021/01/26 12:42:53;;;;;;;62.80;30.25;;;3.70;90.60;;;;;;5094156;28;20027;-68
2021/01/26 12:45:23;;;;;;;45.05;23.50;;;3.70;90.20;;;;;;5095672;28;20058;-67
2021/01/26 12:47:48;;;;;;;61.28;29.20;;;3.60;90.40;;;;;;5095655;28;20453;-66
2021/01/26 12:50:18;;;;;;;32.42;18.33;;;3.60;90.90;;;;;;5093838;28;20020;-68
2021/01/26 12:52:44;;;;;;;52.97;28.85;;;3.60;90.90;;;;;;5094294;28;20366;-69
2021/01/26 12:55:10;;;;;;;18.42;10.80;;;3.50;91.20;;;;;;5095071;28;20048;-67
2021/01/26 12:57:36;;;;;;;20.58;12.43;;;3.40;89.20;;;;;;5093813;28;20116;-68
2021/01/26 13:00:11;;;;;;;51.90;25.90;;;3.30;90.30;;;;;;5094987;28;20079;-69
2021/01/26 13:02:37;;;;;;;22.20;14.48;;;3.30;91.00;;;;;;5093033;28;20566;-69
2021/01/26 13:05:08;;;;;;;22.98;14.18;;;3.30;90.90;;;;;;5092586;28;20123;-66
2021/01/26 13:07:34;;;;;;;58.33;30.02;;;3.20;91.00;;;;;;5090779;28;20024;-69
2021/01/26 13:09:59;;;;;;;35.10;19.52;;;3.20;91.30;;;;;;5093904;28;20020;-67
2021/01/26 13:12:25;;;;;;;63.33;32.03;;;3.30;91.10;;;;;;5092463;28;20036;-69
2021/01/26 13:14:51;;;;;;;32.97;19.00;;;3.30;91.10;;;;;;5093139;28;20060;-68